Station: Maryborough  

  Atmospheric Gas Attenuation - ITU Rec 676-11   ----------------- dB/100km -----------------
Date Time Temp RH % AH g/m3 Dew Point Wind Direction Speed kph Gust kph Barometer mB Rainfall Since 9am 24GHz 47GHz 76GHz 122GHz 134GHz 241GHz
08/05 12:30 21.2 44 8.15 8.5 15 28 1018.8 0 18.3 23.4 34.9 91.4 84.6 291.1
08/05 12:20 21.6 46 8.72 9.5 20 22 1019 0 19.5 24.1 36.8 96.4 91.0 313.4
08/05 12:10 21.4 43 8.06 8.3 22 24 1019.1 0 18.1 23.2 34.5 90.3 83.4 286.7
08/05 12:00 21.2 43 7.97 8.1 17 24 1019 0 17.9 23.1 34.3 89.7 82.5 283.7
08/05 11:50 21.1 45 8.29 8.7 17 20 1019.6 0 18.6 23.6 35.5 92.9 86.4 297.5
08/05 11:40 20.7 41 7.38 7 19 22 1019.7 0 16.7 22.4 32.4 84.7 76.2 261.5
08/05 11:30 20.5 45 8.01 8.2 17 28 1019.7 0 18.0 23.4 34.7 90.9 83.8 288.0
08/05 11:20 20.3 43 7.56 7.3 19 22 1020 0 17.1 22.8 33.2 86.9 78.7 270.2
08/05 11:10 19.8 38 6.49 5.1 9 13 1020.1 0 14.9 21.4 29.7 77.4 66.8 228.5
08/05 11:00 20.4 43 7.61 7.4 15 22 1020 0 17.2 22.9 33.4 87.2 79.2 271.9
08/05 10:50 19.9 41 7.04 6.3 15 17 1020.5 0 16.0 22.2 31.6 82.4 73.1 250.4
08/05 10:40 19.5 41 6.88 5.9 13 19 1020.5 0 15.7 22.0 31.2 81.3 71.6 245.1
08/05 10:30 19 39 6.35 4.7 15 17 1020.7 0 14.6 21.4 29.5 76.9 65.9 225.3
08/05 10:20 19 39 6.35 4.7 19 22 1020.8 0 14.6 21.4 29.5 76.9 66.0 225.3
08/05 10:10 18.8 39 6.28 4.6 17 20 1020.7 0 14.5 21.4 29.3 76.5 65.3 223.0
08/05 10:00 18.6 39 6.21 4.4 17 20 1020.7 0 14.3 21.3 29.2 76.0 64.7 220.8
08/05 09:50 18.1 39 6.03 3.9 17 19 1021 0 14.0 21.2 28.7 74.8 63.0 215.0
08/05 09:40 18.2 42 6.53 5.1 13 17 1021 0 15.0 21.9 30.4 79.4 68.7 234.8
08/05 09:30 16.8 36 5.15 1.7 15 20 1020.9 0 12.2 20.3 26.2 67.9 54.1 183.2
08/05 09:20 16.7 38 5.4 2.3 15 17 1021.1 0 12.7 20.6 27.1 70.3 56.9 193.4
08/05 09:10 16.5 37 5.2 1.8 17 19 1021.1 0 12.3 20.4 26.4 68.7 54.8 185.9
08/05 09:00 16.2 38 5.24 1.9 19 24 1021 0 12.4 20.5 26.7 69.3 55.5 188.2
08/05 08:50 15.8 36 4.85 0.8 15 20 1021.1 0 11.6 20.1 25.5 66.1 51.4 173.6
08/05 08:40 15.5 38 5.02 1.3 13 15 1021 0 11.9 20.4 26.1 67.8 53.5 181.0
08/05 08:30 15.2 39 5.06 1.4 19 24 1020.9 0 12.0 20.5 26.4 68.4 54.1 183.2
08/05 08:20 15 39 5 1.2 22 24 1021.1 0 11.9 20.5 26.2 68.1 53.6 181.3
08/05 08:10 14.6 40 5.01 1.2 19 20 1020.9 0 11.9 20.5 26.4 68.5 54.0 182.6
08/05 08:00 14.1 38 4.61 0 19 26 1020.6 0 11.1 20.1 25.2 65.2 49.7 167.6
08/05 07:50 13.9 41 4.92 0.9 15 19 1020.8 0 11.8 20.6 26.3 68.2 53.4 180.5
08/05 07:40 13.6 40 4.71 0.3 20 24 1020.6 0 11.3 20.3 25.7 66.5 51.2 172.6
08/05 07:30 13.4 42 4.88 0.8 19 28 1020.4 0 11.7 20.6 26.3 68.3 53.2 179.9
08/05 07:20 13.2 42 4.82 0.6 19 22 1020.4 0 11.6 20.6 26.2 67.9 52.7 177.9
08/05 07:10 13 43 4.88 0.7 20 22 1020.2 0 11.7 20.7 26.4 68.6 53.5 180.8
08/05 07:00 12.8 46 5.15 1.5 19 24 1019.9 0 12.3 21.1 27.4 71.3 56.8 192.2
08/05 06:50 12.4 49 5.35 2 15 19 1019.9 0 12.7 21.5 28.3 73.5 59.4 201.5
08/05 06:40 12 51 5.44 2.2 13 17 1019.7 0 12.9 21.7 28.7 74.8 60.8 206.3
08/05 06:30 12 52 5.54 2.5 13 19 1019.5 0 13.1 21.9 29.1 75.7 62.0 210.5
08/05 06:20 11.9 54 5.72 2.9 9 11 1019.5 0 13.5 22.1 29.8 77.6 64.2 218.4
08/05 06:10 11.9 54 5.72 2.9 13 15 1019.5 0 13.5 22.1 29.8 77.6 64.2 218.4
08/05 06:00 12.3 52 5.65 2.7 11 15 1019.4 0 13.4 21.9 29.4 76.5 63.1 214.3
08/05 05:50 11.9 55 5.83 3.2 11 11 1019.4 0 13.8 22.3 30.2 78.7 65.6 223.1
08/05 05:40 10.9 57 5.67 2.7 7 7 1019.4 0 13.5 22.3 30.0 78.0 64.4 218.9
08/05 05:30 12.4 52 5.68 2.8 11 17 1018.9 0 13.4 21.9 29.4 76.7 63.3 215.2
08/05 05:20 13.5 47 5.5 2.4 9 13 1018.9 0 13.0 21.4 28.4 73.9 60.3 204.8
08/05 05:10 13.7 47 5.57 2.6 15 19 1019 0 13.2 21.5 28.6 74.4 61.0 207.2
08/05 05:00 14 47 5.67 2.9 13 20 1018.6 0 13.4 21.5 28.8 75.0 61.9 210.6
08/05 04:50 14.3 47 5.77 3.2 11 13 1018.7 0 13.6 21.6 29.1 75.7 62.9 213.9
08/05 04:40 14.5 48 5.97 3.6 17 22 1018.7 0 14.0 21.9 29.7 77.4 65.1 221.7
08/05 04:30 14.6 49 6.13 4 19 26 1017.9 0 14.3 22.0 30.2 78.8 66.9 228.0
08/05 04:20 14.7 52 6.55 5 15 17 1018.4 0 15.2 22.7 31.7 82.9 71.8 245.5
08/05 04:10 15.3 50 6.53 4.9 22 26 1018.3 0 15.1 22.5 31.4 82.0 71.1 242.8
08/05 04:00 15.1 55 7.1 6.1 17 24 1018.1 0 16.3 23.4 33.6 87.8 78.2 267.7
08/05 03:50 15.4 56 7.36 6.7 17 19 1018 0 16.9 23.7 34.4 90.1 81.1 277.9
08/05 03:40 15.4 57 7.49 6.9 15 19 1017.9 0 17.1 23.9 34.9 91.4 82.7 283.6
08/05 03:30 15.3 59 7.7 7.3 13 22 1017.6 0 17.6 24.2 35.8 93.6 85.4 293.0
08/05 03:20 15.4 58 7.62 7.2 13 15 1017.8 0 17.4 24.1 35.4 92.7 84.3 289.2
08/05 03:10 15.3 59 7.7 7.3 11 13 1017.8 0 17.6 24.2 35.8 93.6 85.4 293.1
08/05 03:00 15.5 58 7.67 7.3 9 13 1017.6 0 17.5 24.1 35.6 93.1 84.8 291.0
08/05 02:50 15.6 58 7.71 7.4 11 11 1018 0 17.6 24.2 35.7 93.4 85.2 292.5
08/05 02:40 15.7 57 7.63 7.2 11 11 1017.9 0 17.4 24.0 35.3 92.5 84.1 288.6
08/05 02:30 15.8 56 7.54 7.1 9 15 1017.7 0 17.2 23.8 34.9 91.4 82.9 284.3
08/05 02:20 15.7 57 7.63 7.2 9 11 1017.8 0 17.4 24.0 35.3 92.5 84.1 288.6
08/05 02:10 16.1 54 7.4 6.8 9 11 1017.8 0 16.9 23.6 34.3 89.7 80.8 277.2
08/05 02:00 16.4 54 7.54 7.1 9 15 1017.6 0 17.2 23.7 34.7 90.7 82.2 282.1
08/05 01:50 16.7 53 7.53 7.1 13 15 1018 0 17.2 23.6 34.5 90.3 81.8 280.7
08/05 01:40 16.9 52 7.48 7 11 13 1017.9 0 17.1 23.5 34.3 89.6 81.0 277.9
08/05 01:30 17.2 50 7.32 6.7 17 22 1017.8 0 16.7 23.2 33.5 87.7 78.8 270.0
08/05 01:20 17.6 49 7.35 6.8 20 22 1018 0 16.8 23.1 33.5 87.6 78.7 270.0
08/05 01:10 17.7 49 7.39 6.9 15 19 1018 0 16.8 23.1 33.6 87.9 79.1 271.4
08/05 01:00 17.8 48 7.28 6.7 17 26 1017.8 0 16.6 22.9 33.1 86.7 77.7 266.4
08/05 00:50 17.7 50 7.54 7.2 13 15 1017.9 0 17.2 23.4 34.1 89.3 80.9 277.7
08/05 00:40 17.5 52 7.75 7.5 11 13 1018 0 17.6 23.7 35.0 91.6 83.7 287.3
08/05 00:30 17.8 51 7.74 7.5 13 19 1017.6 0 17.6 23.6 34.8 91.1 83.2 285.7
08/05 00:20 17.7 51 7.69 7.4 13 15 1017.8 0 17.5 23.6 34.7 90.8 82.7 284.0
08/05 00:10 17.9 52 7.94 7.9 13 15 1017.8 0 18.0 23.9 35.5 93.0 85.6 294.0
08/05 00:00 18.3 50 7.82 7.7 17 20 1017.6 0 17.7 23.6 34.9 91.4 83.7 287.4
07/05 23:50 18.1 52 8.03 8.1 15 19 1017.7 0 18.2 24.0 35.8 93.7 86.4 297.1
07/05 23:40 18.2 53 8.24 8.5 15 19 1017.6 0 18.6 24.3 36.5 95.6 88.9 305.7
07/05 23:30 17.7 60 9.05 9.8 13 20 1017.4 0 20.4 25.6 39.8 104.5 99.6 343.3
07/05 23:20 16.3 70 9.71 10.8 9 11 1017.7 0 21.8 27.1 43.2 113.4 110.1 379.9
07/05 23:10 16.2 71 9.79 10.9 7 9 1017.7 0 22.0 27.3 43.5 114.4 111.4 384.1
07/05 23:00 16.5 68 9.55 10.6 7 9 1017.5 0 21.5 26.8 42.4 111.4 107.7 371.4
07/05 22:50 16.7 68 9.66 10.8 9 9 1017.6 0 21.7 26.9 42.7 112.3 108.9 375.6
07/05 22:40 16.5 70 9.83 11 7 7 1017.4 0 22.1 27.2 43.5 114.4 111.4 384.4
07/05 22:30 17.5 64 9.54 10.6 7 11 1017.2 0 21.4 26.5 41.8 109.8 106.2 366.2
07/05 22:20 17.6 65 9.75 10.9 9 9 1017.4 0 21.8 26.8 42.6 112.0 108.8 375.4
07/05 22:10 18.1 64 9.89 11.2 11 11 1017.4 0 22.1 26.9 42.9 112.7 109.9 379.4
07/05 22:00 19.1 60 9.83 11.2 9 11 1017.2 0 21.9 26.5 42.1 110.7 107.7 371.9
07/05 21:50 19.5 58 9.73 11 9 9 1017.4 0 21.7 26.2 41.5 109.1 105.9 365.6
07/05 21:40 19.5 58 9.73 11 7 9 1017.5 0 21.7 26.2 41.5 109.1 105.9 365.6
07/05 21:30 19.9 57 9.79 11.1 11 17 1017.3 0 21.8 26.2 41.6 109.2 106.2 366.4
07/05 21:20 20.1 57 9.91 11.3 11 15 1017.5 0 22.0 26.3 41.9 110.1 107.4 370.8
07/05 21:10 19.7 60 10.19 11.7 9 11 1017.5 0 22.7 26.9 43.2 113.6 111.6 385.3
07/05 21:00 19.5 62 10.4 12 7 9 1017.3 0 23.1 27.2 44.2 116.1 114.6 395.8
07/05 20:50 20.5 58 10.32 12 9 9 1017.5 0 22.9 26.8 43.3 113.8 112.1 387.3
07/05 20:40 20.5 59 10.5 12.2 9 9 1017.5 0 23.3 27.1 44.0 115.7 114.4 395.4
07/05 20:30 20.5 61 10.85 12.7 7 11 1017.1 0 24.0 27.6 45.4 119.4 118.9 411.1
07/05 20:20 19.8 65 11.1 13 6 7 1017 0 24.6 28.3 46.8 123.1 123.3 426.3
07/05 20:10 20.3 63 11.08 13 7 7 1017 0 24.5 28.1 46.4 122.1 122.2 422.7
07/05 20:00 20.6 62 11.1 13.1 6 9 1016.8 0 24.5 28.0 46.3 121.8 122.0 421.9

Last Refresh: 08-May-2026 12:08:01

Bureau of Meteorology